sensor_id;sensor_type;location;lat;lon;timestamp;P1;durP1;ratioP1;P2;durP2;ratioP2
74344;SDS011;62776;50.518;6.732;2022-10-31T00:01:31;7.60;;;4.20;;
74344;SDS011;62776;50.518;6.732;2022-10-31T00:04:19;5.43;;;4.15;;
74344;SDS011;62776;50.518;6.732;2022-10-31T00:07:05;5.53;;;3.72;;
74344;SDS011;62776;50.518;6.732;2022-10-31T00:09:51;8.45;;;4.55;;
74344;SDS011;62776;50.518;6.732;2022-10-31T00:12:37;7.40;;;4.68;;
74344;SDS011;62776;50.518;6.732;2022-10-31T00:15:23;6.13;;;3.80;;
74344;SDS011;62776;50.518;6.732;2022-10-31T00:18:09;5.40;;;4.00;;
74344;SDS011;62776;50.518;6.732;2022-10-31T00:21:00;7.57;;;4.38;;
74344;SDS011;62776;50.518;6.732;2022-10-31T00:23:47;9.27;;;4.20;;
74344;SDS011;62776;50.518;6.732;2022-10-31T00:26:34;8.75;;;4.72;;
74344;SDS011;62776;50.518;6.732;2022-10-31T00:29:20;6.88;;;4.55;;
74344;SDS011;62776;50.518;6.732;2022-10-31T00:32:06;6.55;;;4.43;;
74344;SDS011;62776;50.518;6.732;2022-10-31T00:34:52;4.32;;;3.92;;
74344;SDS011;62776;50.518;6.732;2022-10-31T00:37:38;6.90;;;4.22;;
74344;SDS011;62776;50.518;6.732;2022-10-31T00:40:24;4.85;;;3.78;;
74344;SDS011;62776;50.518;6.732;2022-10-31T00:43:10;6.05;;;3.70;;
74344;SDS011;62776;50.518;6.732;2022-10-31T00:45:56;5.57;;;3.40;;
74344;SDS011;62776;50.518;6.732;2022-10-31T00:48:42;9.25;;;4.15;;
74344;SDS011;62776;50.518;6.732;2022-10-31T00:51:28;5.15;;;3.40;;
74344;SDS011;62776;50.518;6.732;2022-10-31T00:54:14;7.65;;;4.57;;
74344;SDS011;62776;50.518;6.732;2022-10-31T00:57:00;5.80;;;4.28;;
74344;SDS011;62776;50.518;6.732;2022-10-31T00:59:47;6.53;;;4.40;;
74344;SDS011;62776;50.518;6.732;2022-10-31T01:02:33;8.40;;;4.30;;
74344;SDS011;62776;50.518;6.732;2022-10-31T01:05:19;7.47;;;4.53;;
74344;SDS011;62776;50.518;6.732;2022-10-31T01:08:05;5.05;;;4.50;;
74344;SDS011;62776;50.518;6.732;2022-10-31T01:11:25;5.18;;;4.18;;
74344;SDS011;62776;50.518;6.732;2022-10-31T01:14:05;6.00;;;4.10;;
74344;SDS011;62776;50.518;6.732;2022-10-31T01:16:53;5.40;;;3.78;;
74344;SDS011;62776;50.518;6.732;2022-10-31T01:19:39;7.07;;;4.40;;
74344;SDS011;62776;50.518;6.732;2022-10-31T01:22:25;8.82;;;4.30;;
74344;SDS011;62776;50.518;6.732;2022-10-31T01:25:11;10.18;;;4.60;;
74344;SDS011;62776;50.518;6.732;2022-10-31T01:27:57;10.65;;;4.80;;
74344;SDS011;62776;50.518;6.732;2022-10-31T01:30:43;6.30;;;3.78;;
74344;SDS011;62776;50.518;6.732;2022-10-31T01:33:29;6.28;;;3.97;;
74344;SDS011;62776;50.518;6.732;2022-10-31T01:39:05;8.95;;;4.28;;
74344;SDS011;62776;50.518;6.732;2022-10-31T01:41:54;7.22;;;4.43;;
74344;SDS011;62776;50.518;6.732;2022-10-31T01:47:38;5.40;;;4.05;;
74344;SDS011;62776;50.518;6.732;2022-10-31T01:50:31;7.82;;;4.03;;
74344;SDS011;62776;50.518;6.732;2022-10-31T01:53:22;9.13;;;4.43;;
74344;SDS011;62776;50.518;6.732;2022-10-31T01:56:09;5.78;;;4.35;;
74344;SDS011;62776;50.518;6.732;2022-10-31T01:58:55;6.30;;;4.45;;
74344;SDS011;62776;50.518;6.732;2022-10-31T02:01:46;8.25;;;4.70;;
74344;SDS011;62776;50.518;6.732;2022-10-31T02:04:35;6.63;;;3.85;;
74344;SDS011;62776;50.518;6.732;2022-10-31T02:07:24;6.50;;;4.55;;
74344;SDS011;62776;50.518;6.732;2022-10-31T02:10:27;8.27;;;4.32;;
74344;SDS011;62776;50.518;6.732;2022-10-31T02:13:14;5.82;;;3.80;;
74344;SDS011;62776;50.518;6.732;2022-10-31T02:16:00;10.45;;;3.95;;
74344;SDS011;62776;50.518;6.732;2022-10-31T02:18:46;6.00;;;3.70;;
74344;SDS011;62776;50.518;6.732;2022-10-31T02:24:40;11.27;;;4.13;;
74344;SDS011;62776;50.518;6.732;2022-10-31T02:27:39;6.63;;;4.20;;
74344;SDS011;62776;50.518;6.732;2022-10-31T02:33:55;6.80;;;4.53;;
74344;SDS011;62776;50.518;6.732;2022-10-31T02:37:01;6.97;;;4.38;;
74344;SDS011;62776;50.518;6.732;2022-10-31T02:39:54;11.65;;;4.32;;
74344;SDS011;62776;50.518;6.732;2022-10-31T02:51:30;7.18;;;4.35;;
74344;SDS011;62776;50.518;6.732;2022-10-31T02:54:21;6.22;;;4.65;;
74344;SDS011;62776;50.518;6.732;2022-10-31T02:57:09;4.90;;;4.25;;
74344;SDS011;62776;50.518;6.732;2022-10-31T03:00:07;7.75;;;4.25;;
74344;SDS011;62776;50.518;6.732;2022-10-31T03:03:00;6.47;;;4.10;;
74344;SDS011;62776;50.518;6.732;2022-10-31T03:12:26;8.40;;;4.45;;
74344;SDS011;62776;50.518;6.732;2022-10-31T03:15:22;7.10;;;4.57;;
74344;SDS011;62776;50.518;6.732;2022-10-31T03:21:02;6.70;;;4.40;;
74344;SDS011;62776;50.518;6.732;2022-10-31T03:23:50;5.03;;;4.53;;
74344;SDS011;62776;50.518;6.732;2022-10-31T03:26:40;7.95;;;4.55;;
74344;SDS011;62776;50.518;6.732;2022-10-31T03:29:32;10.30;;;4.82;;
74344;SDS011;62776;50.518;6.732;2022-10-31T03:32:22;6.45;;;4.38;;
74344;SDS011;62776;50.518;6.732;2022-10-31T03:35:13;7.95;;;4.30;;
74344;SDS011;62776;50.518;6.732;2022-10-31T03:38:02;7.65;;;3.83;;
74344;SDS011;62776;50.518;6.732;2022-10-31T03:40:51;5.57;;;3.95;;
74344;SDS011;62776;50.518;6.732;2022-10-31T03:43:40;7.75;;;4.57;;
74344;SDS011;62776;50.518;6.732;2022-10-31T03:46:31;7.75;;;5.28;;
74344;SDS011;62776;50.518;6.732;2022-10-31T03:49:18;4.20;;;3.80;;
74344;SDS011;62776;50.518;6.732;2022-10-31T03:55:19;8.45;;;4.30;;
74344;SDS011;62776;50.518;6.732;2022-10-31T03:58:16;6.63;;;3.85;;
74344;SDS011;62776;50.518;6.732;2022-10-31T04:01:08;6.28;;;4.20;;
74344;SDS011;62776;50.518;6.732;2022-10-31T04:03:58;8.70;;;4.88;;
74344;SDS011;62776;50.518;6.732;2022-10-31T04:06:45;6.63;;;5.15;;
74344;SDS011;62776;50.518;6.732;2022-10-31T04:09:36;10.25;;;4.88;;
74344;SDS011;62776;50.518;6.732;2022-10-31T04:12:24;5.97;;;4.45;;
74344;SDS011;62776;50.518;6.732;2022-10-31T04:15:11;6.18;;;4.82;;
74344;SDS011;62776;50.518;6.732;2022-10-31T04:17:58;8.15;;;4.72;;
74344;SDS011;62776;50.518;6.732;2022-10-31T04:20:46;6.28;;;5.00;;
74344;SDS011;62776;50.518;6.732;2022-10-31T04:23:35;7.10;;;4.90;;
74344;SDS011;62776;50.518;6.732;2022-10-31T04:26:22;8.40;;;5.53;;
74344;SDS011;62776;50.518;6.732;2022-10-31T04:29:08;8.40;;;5.50;;
74344;SDS011;62776;50.518;6.732;2022-10-31T04:31:54;6.13;;;4.68;;
74344;SDS011;62776;50.518;6.732;2022-10-31T04:34:40;9.40;;;5.35;;
74344;SDS011;62776;50.518;6.732;2022-10-31T04:37:26;9.45;;;5.35;;
74344;SDS011;62776;50.518;6.732;2022-10-31T04:40:12;6.90;;;4.88;;
74344;SDS011;62776;50.518;6.732;2022-10-31T04:42:59;6.38;;;5.78;;
74344;SDS011;62776;50.518;6.732;2022-10-31T04:45:45;6.07;;;4.28;;
74344;SDS011;62776;50.518;6.732;2022-10-31T04:48:31;7.28;;;5.68;;
74344;SDS011;62776;50.518;6.732;2022-10-31T04:51:17;6.20;;;5.00;;
74344;SDS011;62776;50.518;6.732;2022-10-31T04:54:03;6.45;;;5.28;;
74344;SDS011;62776;50.518;6.732;2022-10-31T04:56:49;9.65;;;6.10;;
74344;SDS011;62776;50.518;6.732;2022-10-31T04:59:35;9.20;;;6.05;;
74344;SDS011;62776;50.518;6.732;2022-10-31T05:02:21;9.90;;;5.00;;
74344;SDS011;62776;50.518;6.732;2022-10-31T05:05:07;11.30;;;6.38;;
74344;SDS011;62776;50.518;6.732;2022-10-31T05:07:53;6.82;;;5.45;;
74344;SDS011;62776;50.518;6.732;2022-10-31T05:10:40;6.75;;;4.97;;
74344;SDS011;62776;50.518;6.732;2022-10-31T05:13:26;8.77;;;6.20;;
74344;SDS011;62776;50.518;6.732;2022-10-31T05:16:12;9.25;;;5.82;;
74344;SDS011;62776;50.518;6.732;2022-10-31T05:18:58;11.93;;;5.93;;
74344;SDS011;62776;50.518;6.732;2022-10-31T05:21:44;10.60;;;6.53;;
74344;SDS011;62776;50.518;6.732;2022-10-31T05:24:30;9.82;;;5.43;;
74344;SDS011;62776;50.518;6.732;2022-10-31T05:27:16;9.70;;;5.40;;
74344;SDS011;62776;50.518;6.732;2022-10-31T05:30:03;9.55;;;5.93;;
74344;SDS011;62776;50.518;6.732;2022-10-31T05:32:50;8.90;;;6.38;;
74344;SDS011;62776;50.518;6.732;2022-10-31T05:35:36;10.63;;;6.28;;
74344;SDS011;62776;50.518;6.732;2022-10-31T05:38:22;8.65;;;6.65;;
74344;SDS011;62776;50.518;6.732;2022-10-31T05:41:08;10.85;;;6.50;;
74344;SDS011;62776;50.518;6.732;2022-10-31T05:43:54;14.77;;;7.50;;
74344;SDS011;62776;50.518;6.732;2022-10-31T05:46:40;8.82;;;7.35;;
74344;SDS011;62776;50.518;6.732;2022-10-31T05:49:26;8.27;;;7.05;;
74344;SDS011;62776;50.518;6.732;2022-10-31T05:52:12;13.45;;;7.38;;
74344;SDS011;62776;50.518;6.732;2022-10-31T05:54:59;12.77;;;8.32;;
74344;SDS011;62776;50.518;6.732;2022-10-31T05:57:45;10.50;;;7.22;;
74344;SDS011;62776;50.518;6.732;2022-10-31T06:00:32;18.70;;;13.70;;
74344;SDS011;62776;50.518;6.732;2022-10-31T06:03:19;19.67;;;12.63;;
74344;SDS011;62776;50.518;6.732;2022-10-31T06:06:06;21.40;;;13.98;;
74344;SDS011;62776;50.518;6.732;2022-10-31T06:08:52;15.38;;;12.32;;
74344;SDS011;62776;50.518;6.732;2022-10-31T06:11:38;20.40;;;13.63;;
74344;SDS011;62776;50.518;6.732;2022-10-31T06:14:24;22.02;;;15.25;;
74344;SDS011;62776;50.518;6.732;2022-10-31T06:17:10;22.58;;;15.32;;
74344;SDS011;62776;50.518;6.732;2022-10-31T06:19:56;16.35;;;11.50;;
74344;SDS011;62776;50.518;6.732;2022-10-31T06:22:42;19.77;;;11.60;;
74344;SDS011;62776;50.518;6.732;2022-10-31T06:25:28;16.45;;;10.45;;
74344;SDS011;62776;50.518;6.732;2022-10-31T06:28:14;15.40;;;11.85;;
74344;SDS011;62776;50.518;6.732;2022-10-31T06:31:00;16.10;;;11.98;;
74344;SDS011;62776;50.518;6.732;2022-10-31T06:33:46;16.08;;;11.90;;
74344;SDS011;62776;50.518;6.732;2022-10-31T06:36:32;19.63;;;11.80;;
74344;SDS011;62776;50.518;6.732;2022-10-31T06:39:18;18.35;;;12.32;;
74344;SDS011;62776;50.518;6.732;2022-10-31T06:42:05;14.90;;;12.07;;
74344;SDS011;62776;50.518;6.732;2022-10-31T06:44:51;15.50;;;12.13;;
74344;SDS011;62776;50.518;6.732;2022-10-31T06:47:37;20.90;;;12.70;;
74344;SDS011;62776;50.518;6.732;2022-10-31T06:50:23;15.10;;;12.77;;
74344;SDS011;62776;50.518;6.732;2022-10-31T06:53:09;18.52;;;13.05;;
74344;SDS011;62776;50.518;6.732;2022-10-31T06:55:56;15.77;;;11.73;;
74344;SDS011;62776;50.518;6.732;2022-10-31T06:58:42;20.65;;;14.20;;
74344;SDS011;62776;50.518;6.732;2022-10-31T07:01:28;13.50;;;11.75;;
74344;SDS011;62776;50.518;6.732;2022-10-31T07:04:14;17.45;;;12.40;;
74344;SDS011;62776;50.518;6.732;2022-10-31T07:07:00;18.13;;;12.63;;
74344;SDS011;62776;50.518;6.732;2022-10-31T07:09:46;17.42;;;11.50;;
74344;SDS011;62776;50.518;6.732;2022-10-31T07:12:32;15.48;;;11.63;;
74344;SDS011;62776;50.518;6.732;2022-10-31T07:15:18;14.05;;;10.77;;
74344;SDS011;62776;50.518;6.732;2022-10-31T07:18:05;17.55;;;11.95;;
74344;SDS011;62776;50.518;6.732;2022-10-31T07:20:53;13.82;;;11.52;;
74344;SDS011;62776;50.518;6.732;2022-10-31T07:23:39;12.75;;;11.45;;
74344;SDS011;62776;50.518;6.732;2022-10-31T07:26:25;16.10;;;11.35;;
74344;SDS011;62776;50.518;6.732;2022-10-31T07:29:12;18.85;;;14.93;;
74344;SDS011;62776;50.518;6.732;2022-10-31T07:31:58;22.15;;;19.38;;
74344;SDS011;62776;50.518;6.732;2022-10-31T07:34:45;26.73;;;23.85;;
74344;SDS011;62776;50.518;6.732;2022-10-31T07:37:31;26.83;;;23.73;;
74344;SDS011;62776;50.518;6.732;2022-10-31T07:40:17;21.95;;;19.45;;
74344;SDS011;62776;50.518;6.732;2022-10-31T07:43:04;18.20;;;16.30;;
74344;SDS011;62776;50.518;6.732;2022-10-31T07:45:51;18.63;;;14.25;;
74344;SDS011;62776;50.518;6.732;2022-10-31T07:48:38;15.15;;;12.85;;
74344;SDS011;62776;50.518;6.732;2022-10-31T07:51:24;19.05;;;14.20;;
74344;SDS011;62776;50.518;6.732;2022-10-31T07:54:10;17.90;;;13.82;;
74344;SDS011;62776;50.518;6.732;2022-10-31T07:56:56;18.63;;;11.38;;
74344;SDS011;62776;50.518;6.732;2022-10-31T07:59:42;12.88;;;9.35;;
74344;SDS011;62776;50.518;6.732;2022-10-31T08:02:28;10.80;;;8.23;;
74344;SDS011;62776;50.518;6.732;2022-10-31T08:05:14;12.25;;;11.05;;
74344;SDS011;62776;50.518;6.732;2022-10-31T08:08:00;11.23;;;9.05;;
74344;SDS011;62776;50.518;6.732;2022-10-31T08:10:47;11.57;;;8.50;;
74344;SDS011;62776;50.518;6.732;2022-10-31T08:13:33;13.23;;;9.05;;
74344;SDS011;62776;50.518;6.732;2022-10-31T08:16:19;15.98;;;7.38;;
74344;SDS011;62776;50.518;6.732;2022-10-31T08:19:05;10.93;;;7.10;;
74344;SDS011;62776;50.518;6.732;2022-10-31T08:21:52;12.10;;;7.60;;
74344;SDS011;62776;50.518;6.732;2022-10-31T08:24:39;8.60;;;6.30;;
74344;SDS011;62776;50.518;6.732;2022-10-31T08:27:25;21.67;;;7.05;;
74344;SDS011;62776;50.518;6.732;2022-10-31T08:30:12;11.52;;;6.43;;
74344;SDS011;62776;50.518;6.732;2022-10-31T08:33:05;7.85;;;6.38;;
74344;SDS011;62776;50.518;6.732;2022-10-31T08:35:54;11.70;;;6.72;;
74344;SDS011;62776;50.518;6.732;2022-10-31T08:38:40;12.93;;;6.50;;
74344;SDS011;62776;50.518;6.732;2022-10-31T08:41:26;11.73;;;7.13;;
74344;SDS011;62776;50.518;6.732;2022-10-31T08:44:12;12.15;;;6.78;;
74344;SDS011;62776;50.518;6.732;2022-10-31T08:46:58;10.38;;;6.07;;
74344;SDS011;62776;50.518;6.732;2022-10-31T08:49:44;12.13;;;7.05;;
74344;SDS011;62776;50.518;6.732;2022-10-31T08:52:30;9.30;;;6.28;;
74344;SDS011;62776;50.518;6.732;2022-10-31T08:55:16;11.38;;;6.75;;
74344;SDS011;62776;50.518;6.732;2022-10-31T08:58:03;15.02;;;6.22;;
74344;SDS011;62776;50.518;6.732;2022-10-31T09:00:51;10.43;;;5.75;;
74344;SDS011;62776;50.518;6.732;2022-10-31T09:03:39;13.18;;;6.05;;
74344;SDS011;62776;50.518;6.732;2022-10-31T09:06:25;11.32;;;4.93;;
74344;SDS011;62776;50.518;6.732;2022-10-31T09:09:11;10.85;;;5.18;;
74344;SDS011;62776;50.518;6.732;2022-10-31T09:11:57;6.38;;;5.00;;
74344;SDS011;62776;50.518;6.732;2022-10-31T09:14:43;10.07;;;5.53;;
74344;SDS011;62776;50.518;6.732;2022-10-31T09:17:29;8.65;;;4.50;;
74344;SDS011;62776;50.518;6.732;2022-10-31T09:20:15;8.20;;;4.90;;
74344;SDS011;62776;50.518;6.732;2022-10-31T09:23:03;9.50;;;4.90;;
74344;SDS011;62776;50.518;6.732;2022-10-31T09:25:55;8.68;;;4.82;;
74344;SDS011;62776;50.518;6.732;2022-10-31T09:28:43;8.45;;;4.53;;
74344;SDS011;62776;50.518;6.732;2022-10-31T09:31:29;10.10;;;4.70;;
74344;SDS011;62776;50.518;6.732;2022-10-31T09:34:15;7.95;;;4.13;;
74344;SDS011;62776;50.518;6.732;2022-10-31T09:37:01;7.97;;;3.72;;
74344;SDS011;62776;50.518;6.732;2022-10-31T09:39:47;5.53;;;4.03;;
74344;SDS011;62776;50.518;6.732;2022-10-31T09:42:37;7.82;;;4.55;;
74344;SDS011;62776;50.518;6.732;2022-10-31T09:48:43;8.80;;;4.35;;
74344;SDS011;62776;50.518;6.732;2022-10-31T09:51:50;11.15;;;4.25;;
74344;SDS011;62776;50.518;6.732;2022-10-31T09:54:46;9.48;;;4.30;;
74344;SDS011;62776;50.518;6.732;2022-10-31T09:57:50;13.82;;;5.25;;
74344;SDS011;62776;50.518;6.732;2022-10-31T10:00:36;9.95;;;4.90;;
74344;SDS011;62776;50.518;6.732;2022-10-31T10:06:21;6.25;;;3.67;;
74344;SDS011;62776;50.518;6.732;2022-10-31T10:09:10;13.55;;;3.80;;
74344;SDS011;62776;50.518;6.732;2022-10-31T10:18:22;9.95;;;4.18;;
74344;SDS011;62776;50.518;6.732;2022-10-31T10:27:48;5.32;;;3.55;;
74344;SDS011;62776;50.518;6.732;2022-10-31T10:30:56;6.60;;;3.85;;
74344;SDS011;62776;50.518;6.732;2022-10-31T10:37:04;9.13;;;4.20;;
74344;SDS011;62776;50.518;6.732;2022-10-31T10:40:08;7.45;;;4.10;;
74344;SDS011;62776;50.518;6.732;2022-10-31T10:43:18;7.95;;;4.40;;
74344;SDS011;62776;50.518;6.732;2022-10-31T10:49:31;9.20;;;3.95;;
74344;SDS011;62776;50.518;6.732;2022-10-31T10:55:53;9.40;;;3.80;;
74344;SDS011;62776;50.518;6.732;2022-10-31T10:58:45;6.90;;;3.50;;
74344;SDS011;62776;50.518;6.732;2022-10-31T11:01:32;8.13;;;3.90;;
74344;SDS011;62776;50.518;6.732;2022-10-31T11:04:32;9.00;;;3.22;;
74344;SDS011;62776;50.518;6.732;2022-10-31T11:07:20;7.65;;;3.97;;
74344;SDS011;62776;50.518;6.732;2022-10-31T11:10:11;10.55;;;3.28;;
74344;SDS011;62776;50.518;6.732;2022-10-31T11:16:09;8.43;;;3.55;;
74344;SDS011;62776;50.518;6.732;2022-10-31T11:19:06;7.65;;;3.38;;
74344;SDS011;62776;50.518;6.732;2022-10-31T11:21:53;6.32;;;3.05;;
74344;SDS011;62776;50.518;6.732;2022-10-31T11:24:50;7.55;;;3.67;;
74344;SDS011;62776;50.518;6.732;2022-10-31T11:27:36;7.13;;;3.38;;
74344;SDS011;62776;50.518;6.732;2022-10-31T11:30:22;8.85;;;3.70;;
74344;SDS011;62776;50.518;6.732;2022-10-31T11:33:14;8.68;;;3.92;;
74344;SDS011;62776;50.518;6.732;2022-10-31T11:36:24;8.13;;;3.00;;
74344;SDS011;62776;50.518;6.732;2022-10-31T11:39:14;7.20;;;3.95;;
74344;SDS011;62776;50.518;6.732;2022-10-31T11:42:08;8.57;;;3.33;;
74344;SDS011;62776;50.518;6.732;2022-10-31T11:44:55;6.72;;;3.00;;
74344;SDS011;62776;50.518;6.732;2022-10-31T11:47:43;7.47;;;3.50;;
74344;SDS011;62776;50.518;6.732;2022-10-31T11:53:27;6.88;;;3.53;;
74344;SDS011;62776;50.518;6.732;2022-10-31T11:56:16;4.65;;;2.65;;
74344;SDS011;62776;50.518;6.732;2022-10-31T11:59:12;5.75;;;3.15;;
74344;SDS011;62776;50.518;6.732;2022-10-31T12:02:17;8.70;;;3.30;;
74344;SDS011;62776;50.518;6.732;2022-10-31T12:05:07;5.07;;;2.88;;
74344;SDS011;62776;50.518;6.732;2022-10-31T12:08:07;10.30;;;3.33;;
74344;SDS011;62776;50.518;6.732;2022-10-31T12:13:55;9.50;;;2.83;;
74344;SDS011;62776;50.518;6.732;2022-10-31T12:17:06;6.32;;;2.83;;
74344;SDS011;62776;50.518;6.732;2022-10-31T12:25:50;10.18;;;3.03;;
74344;SDS011;62776;50.518;6.732;2022-10-31T12:28:54;8.98;;;4.32;;
74344;SDS011;62776;50.518;6.732;2022-10-31T12:38:20;4.95;;;2.92;;
74344;SDS011;62776;50.518;6.732;2022-10-31T12:42:00;5.53;;;2.70;;
74344;SDS011;62776;50.518;6.732;2022-10-31T13:00:17;10.52;;;3.70;;
74344;SDS011;62776;50.518;6.732;2022-10-31T13:06:09;6.57;;;2.78;;
74344;SDS011;62776;50.518;6.732;2022-10-31T13:09:05;5.75;;;2.70;;
74344;SDS011;62776;50.518;6.732;2022-10-31T13:11:56;4.97;;;2.35;;
74344;SDS011;62776;50.518;6.732;2022-10-31T13:14:54;9.88;;;2.78;;
74344;SDS011;62776;50.518;6.732;2022-10-31T13:17:51;7.05;;;2.65;;
74344;SDS011;62776;50.518;6.732;2022-10-31T13:20:41;6.00;;;2.47;;
74344;SDS011;62776;50.518;6.732;2022-10-31T13:23:34;5.75;;;3.17;;
74344;SDS011;62776;50.518;6.732;2022-10-31T13:32:06;8.60;;;3.25;;
74344;SDS011;62776;50.518;6.732;2022-10-31T13:34:53;7.55;;;2.35;;
74344;SDS011;62776;50.518;6.732;2022-10-31T13:37:49;8.15;;;3.03;;
74344;SDS011;62776;50.518;6.732;2022-10-31T13:40:59;8.15;;;3.05;;
74344;SDS011;62776;50.518;6.732;2022-10-31T13:46:55;4.53;;;2.63;;
74344;SDS011;62776;50.518;6.732;2022-10-31T13:49:42;7.55;;;3.08;;
74344;SDS011;62776;50.518;6.732;2022-10-31T13:52:29;6.25;;;3.28;;
74344;SDS011;62776;50.518;6.732;2022-10-31T13:58:25;6.45;;;2.95;;
74344;SDS011;62776;50.518;6.732;2022-10-31T14:01:17;8.93;;;3.00;;
74344;SDS011;62776;50.518;6.732;2022-10-31T14:04:06;6.47;;;3.10;;
74344;SDS011;62776;50.518;6.732;2022-10-31T14:07:10;7.38;;;2.75;;
74344;SDS011;62776;50.518;6.732;2022-10-31T14:10:00;7.03;;;2.53;;
74344;SDS011;62776;50.518;6.732;2022-10-31T14:12:50;7.38;;;3.28;;
74344;SDS011;62776;50.518;6.732;2022-10-31T14:15:36;5.28;;;2.80;;
74344;SDS011;62776;50.518;6.732;2022-10-31T14:18:29;9.63;;;2.90;;
74344;SDS011;62776;50.518;6.732;2022-10-31T14:24:30;5.10;;;3.10;;
74344;SDS011;62776;50.518;6.732;2022-10-31T14:30:14;7.20;;;2.90;;
74344;SDS011;62776;50.518;6.732;2022-10-31T14:33:18;4.55;;;2.88;;
74344;SDS011;62776;50.518;6.732;2022-10-31T14:45:46;8.07;;;3.00;;
74344;SDS011;62776;50.518;6.732;2022-10-31T14:51:43;7.80;;;2.88;;
74344;SDS011;62776;50.518;6.732;2022-10-31T14:54:33;4.10;;;2.88;;
74344;SDS011;62776;50.518;6.732;2022-10-31T14:57:30;5.55;;;2.80;;
74344;SDS011;62776;50.518;6.732;2022-10-31T15:00:20;6.07;;;2.45;;
74344;SDS011;62776;50.518;6.732;2022-10-31T15:03:11;4.72;;;2.55;;
74344;SDS011;62776;50.518;6.732;2022-10-31T15:06:05;8.45;;;2.67;;
74344;SDS011;62776;50.518;6.732;2022-10-31T15:08:59;5.97;;;3.03;;
74344;SDS011;62776;50.518;6.732;2022-10-31T15:11:45;6.28;;;3.17;;
74344;SDS011;62776;50.518;6.732;2022-10-31T15:14:31;5.00;;;2.38;;
74344;SDS011;62776;50.518;6.732;2022-10-31T15:17:17;5.93;;;2.83;;
74344;SDS011;62776;50.518;6.732;2022-10-31T15:20:05;10.50;;;2.80;;
74344;SDS011;62776;50.518;6.732;2022-10-31T15:22:51;9.38;;;2.63;;
74344;SDS011;62776;50.518;6.732;2022-10-31T15:25:42;6.43;;;2.40;;
74344;SDS011;62776;50.518;6.732;2022-10-31T15:28:29;4.47;;;2.97;;
74344;SDS011;62776;50.518;6.732;2022-10-31T15:31:16;4.75;;;2.20;;
74344;SDS011;62776;50.518;6.732;2022-10-31T15:34:04;8.45;;;2.85;;
74344;SDS011;62776;50.518;6.732;2022-10-31T15:37:01;6.63;;;2.47;;
74344;SDS011;62776;50.518;6.732;2022-10-31T15:39:48;7.95;;;2.55;;
74344;SDS011;62776;50.518;6.732;2022-10-31T15:42:38;3.22;;;2.28;;
74344;SDS011;62776;50.518;6.732;2022-10-31T15:45:26;6.25;;;2.72;;
74344;SDS011;62776;50.518;6.732;2022-10-31T15:48:16;7.68;;;2.88;;
74344;SDS011;62776;50.518;6.732;2022-10-31T15:51:09;8.15;;;2.63;;
74344;SDS011;62776;50.518;6.732;2022-10-31T15:53:55;10.15;;;2.80;;
74344;SDS011;62776;50.518;6.732;2022-10-31T15:56:43;7.03;;;2.55;;
74344;SDS011;62776;50.518;6.732;2022-10-31T15:59:29;5.50;;;2.60;;
74344;SDS011;62776;50.518;6.732;2022-10-31T16:02:20;4.25;;;2.65;;
74344;SDS011;62776;50.518;6.732;2022-10-31T16:05:17;6.50;;;2.65;;
74344;SDS011;62776;50.518;6.732;2022-10-31T16:08:04;5.95;;;2.70;;
74344;SDS011;62776;50.518;6.732;2022-10-31T16:13:53;6.88;;;2.72;;
74344;SDS011;62776;50.518;6.732;2022-10-31T16:17:01;6.63;;;2.75;;
74344;SDS011;62776;50.518;6.732;2022-10-31T16:19:51;4.75;;;2.67;;
74344;SDS011;62776;50.518;6.732;2022-10-31T16:22:41;7.43;;;2.92;;
74344;SDS011;62776;50.518;6.732;2022-10-31T16:25:35;5.72;;;3.30;;
74344;SDS011;62776;50.518;6.732;2022-10-31T16:28:23;4.75;;;3.13;;
74344;SDS011;62776;50.518;6.732;2022-10-31T16:31:14;7.53;;;3.00;;
74344;SDS011;62776;50.518;6.732;2022-10-31T16:34:14;4.82;;;2.88;;
74344;SDS011;62776;50.518;6.732;2022-10-31T16:37:04;5.20;;;3.20;;
74344;SDS011;62776;50.518;6.732;2022-10-31T16:39:50;9.70;;;2.70;;
74344;SDS011;62776;50.518;6.732;2022-10-31T16:42:36;7.30;;;2.90;;
74344;SDS011;62776;50.518;6.732;2022-10-31T16:45:23;4.18;;;3.05;;
74344;SDS011;62776;50.518;6.732;2022-10-31T16:48:15;5.95;;;3.08;;
74344;SDS011;62776;50.518;6.732;2022-10-31T16:51:07;5.65;;;2.90;;
74344;SDS011;62776;50.518;6.732;2022-10-31T16:53:53;6.25;;;3.40;;
74344;SDS011;62776;50.518;6.732;2022-10-31T16:56:40;5.03;;;3.03;;
74344;SDS011;62776;50.518;6.732;2022-10-31T16:59:27;7.65;;;3.35;;
74344;SDS011;62776;50.518;6.732;2022-10-31T17:02:16;7.07;;;3.20;;
74344;SDS011;62776;50.518;6.732;2022-10-31T17:05:02;5.97;;;3.38;;
74344;SDS011;62776;50.518;6.732;2022-10-31T17:07:49;5.70;;;2.72;;
74344;SDS011;62776;50.518;6.732;2022-10-31T17:10:35;4.85;;;2.80;;
74344;SDS011;62776;50.518;6.732;2022-10-31T17:13:23;6.38;;;3.20;;
74344;SDS011;62776;50.518;6.732;2022-10-31T17:16:13;4.78;;;2.75;;
74344;SDS011;62776;50.518;6.732;2022-10-31T17:18:59;5.70;;;3.45;;
74344;SDS011;62776;50.518;6.732;2022-10-31T17:21:45;5.65;;;3.17;;
74344;SDS011;62776;50.518;6.732;2022-10-31T17:24:31;4.50;;;3.05;;
74344;SDS011;62776;50.518;6.732;2022-10-31T17:27:17;7.15;;;3.30;;
74344;SDS011;62776;50.518;6.732;2022-10-31T17:30:03;7.65;;;3.55;;
74344;SDS011;62776;50.518;6.732;2022-10-31T17:32:50;6.38;;;2.70;;
74344;SDS011;62776;50.518;6.732;2022-10-31T17:35:36;4.78;;;2.95;;
74344;SDS011;62776;50.518;6.732;2022-10-31T17:38:22;8.77;;;3.85;;
74344;SDS011;62776;50.518;6.732;2022-10-31T17:41:08;6.05;;;3.33;;
74344;SDS011;62776;50.518;6.732;2022-10-31T17:43:55;8.55;;;3.70;;
74344;SDS011;62776;50.518;6.732;2022-10-31T17:46:41;6.38;;;3.17;;
74344;SDS011;62776;50.518;6.732;2022-10-31T17:49:28;5.32;;;3.50;;
74344;SDS011;62776;50.518;6.732;2022-10-31T17:52:14;8.48;;;3.60;;
74344;SDS011;62776;50.518;6.732;2022-10-31T17:55:00;5.05;;;3.80;;
74344;SDS011;62776;50.518;6.732;2022-10-31T17:57:46;9.68;;;5.05;;
74344;SDS011;62776;50.518;6.732;2022-10-31T18:00:32;5.75;;;3.40;;
74344;SDS011;62776;50.518;6.732;2022-10-31T18:03:18;5.57;;;3.50;;
74344;SDS011;62776;50.518;6.732;2022-10-31T18:06:05;6.80;;;3.45;;
74344;SDS011;62776;50.518;6.732;2022-10-31T18:08:51;7.55;;;3.47;;
74344;SDS011;62776;50.518;6.732;2022-10-31T18:11:37;7.50;;;3.50;;
74344;SDS011;62776;50.518;6.732;2022-10-31T18:14:23;6.45;;;3.60;;
74344;SDS011;62776;50.518;6.732;2022-10-31T18:17:10;5.90;;;3.85;;
74344;SDS011;62776;50.518;6.732;2022-10-31T18:19:56;7.70;;;3.72;;
74344;SDS011;62776;50.518;6.732;2022-10-31T18:22:42;13.35;;;3.60;;
74344;SDS011;62776;50.518;6.732;2022-10-31T18:25:28;11.77;;;4.00;;
74344;SDS011;62776;50.518;6.732;2022-10-31T18:28:14;8.68;;;3.25;;
74344;SDS011;62776;50.518;6.732;2022-10-31T18:31:00;6.50;;;3.63;;
74344;SDS011;62776;50.518;6.732;2022-10-31T18:33:46;9.95;;;3.85;;
74344;SDS011;62776;50.518;6.732;2022-10-31T18:36:32;5.28;;;3.38;;
74344;SDS011;62776;50.518;6.732;2022-10-31T18:39:18;7.82;;;3.53;;
74344;SDS011;62776;50.518;6.732;2022-10-31T18:42:04;5.45;;;3.08;;
74344;SDS011;62776;50.518;6.732;2022-10-31T18:44:50;5.50;;;3.30;;
74344;SDS011;62776;50.518;6.732;2022-10-31T18:47:36;7.07;;;3.95;;
74344;SDS011;62776;50.518;6.732;2022-10-31T18:50:22;5.90;;;3.20;;
74344;SDS011;62776;50.518;6.732;2022-10-31T18:53:08;6.47;;;4.68;;
74344;SDS011;62776;50.518;6.732;2022-10-31T18:55:55;8.75;;;3.42;;
74344;SDS011;62776;50.518;6.732;2022-10-31T18:58:42;7.50;;;3.78;;
74344;SDS011;62776;50.518;6.732;2022-10-31T19:01:28;6.90;;;4.18;;
74344;SDS011;62776;50.518;6.732;2022-10-31T19:04:15;6.18;;;4.28;;
74344;SDS011;62776;50.518;6.732;2022-10-31T19:07:01;7.55;;;3.50;;
74344;SDS011;62776;50.518;6.732;2022-10-31T19:09:47;5.78;;;3.67;;